sensor_id;sensor_type;location;lat;lon;timestamp;P1;durP1;ratioP1;P2;durP2;ratioP2
29662;SDS011;16578;53.266;7.920;2023-01-25T00:01:46;37.50;;;24.75;;
29662;SDS011;16578;53.266;7.920;2023-01-25T00:04:11;39.10;;;24.58;;
29662;SDS011;16578;53.266;7.920;2023-01-25T00:06:37;38.63;;;26.13;;
29662;SDS011;16578;53.266;7.920;2023-01-25T00:09:03;38.13;;;25.23;;
29662;SDS011;16578;53.266;7.920;2023-01-25T00:11:28;37.85;;;25.75;;
29662;SDS011;16578;53.266;7.920;2023-01-25T00:13:54;38.47;;;27.13;;
29662;SDS011;16578;53.266;7.920;2023-01-25T00:16:20;41.90;;;27.52;;
29662;SDS011;16578;53.266;7.920;2023-01-25T00:18:47;38.47;;;24.98;;
29662;SDS011;16578;53.266;7.920;2023-01-25T00:23:41;39.45;;;25.40;;
29662;SDS011;16578;53.266;7.920;2023-01-25T00:26:06;37.50;;;24.67;;
29662;SDS011;16578;53.266;7.920;2023-01-25T00:28:32;37.63;;;24.17;;
29662;SDS011;16578;53.266;7.920;2023-01-25T00:30:58;37.05;;;26.05;;
29662;SDS011;16578;53.266;7.920;2023-01-25T00:39:03;31.92;;;20.85;;
29662;SDS011;16578;53.266;7.920;2023-01-25T00:41:35;33.15;;;23.75;;
29662;SDS011;16578;53.266;7.920;2023-01-25T00:44:00;33.75;;;23.13;;
29662;SDS011;16578;53.266;7.920;2023-01-25T00:46:26;32.15;;;21.75;;
29662;SDS011;16578;53.266;7.920;2023-01-25T00:48:52;31.00;;;21.13;;
29662;SDS011;16578;53.266;7.920;2023-01-25T00:51:19;32.22;;;21.58;;
29662;SDS011;16578;53.266;7.920;2023-01-25T00:53:44;30.52;;;20.77;;
29662;SDS011;16578;53.266;7.920;2023-01-25T00:56:10;29.08;;;21.23;;
29662;SDS011;16578;53.266;7.920;2023-01-25T00:58:36;27.50;;;19.75;;
29662;SDS011;16578;53.266;7.920;2023-01-25T01:01:01;26.15;;;17.67;;
29662;SDS011;16578;53.266;7.920;2023-01-25T01:03:27;24.85;;;17.63;;
29662;SDS011;16578;53.266;7.920;2023-01-25T01:06:03;26.33;;;19.52;;
29662;SDS011;16578;53.266;7.920;2023-01-25T01:08:34;23.20;;;17.55;;
29662;SDS011;16578;53.266;7.920;2023-01-25T01:11:04;24.85;;;18.38;;
29662;SDS011;16578;53.266;7.920;2023-01-25T01:13:31;26.13;;;18.77;;
29662;SDS011;16578;53.266;7.920;2023-01-25T01:15:59;24.92;;;19.70;;
29662;SDS011;16578;53.266;7.920;2023-01-25T01:18:35;26.98;;;20.40;;
29662;SDS011;16578;53.266;7.920;2023-01-25T01:21:08;27.13;;;20.40;;
29662;SDS011;16578;53.266;7.920;2023-01-25T01:23:34;26.42;;;19.23;;
29662;SDS011;16578;53.266;7.920;2023-01-25T01:26:01;26.83;;;20.05;;
29662;SDS011;16578;53.266;7.920;2023-01-25T01:28:28;27.52;;;19.75;;
29662;SDS011;16578;53.266;7.920;2023-01-25T01:31:01;26.80;;;20.23;;
29662;SDS011;16578;53.266;7.920;2023-01-25T01:33:28;27.15;;;20.60;;
29662;SDS011;16578;53.266;7.920;2023-01-25T01:35:53;31.58;;;23.45;;
29662;SDS011;16578;53.266;7.920;2023-01-25T01:38:19;33.75;;;23.92;;
29662;SDS011;16578;53.266;7.920;2023-01-25T01:40:45;29.83;;;22.10;;
29662;SDS011;16578;53.266;7.920;2023-01-25T01:43:15;33.35;;;23.45;;
29662;SDS011;16578;53.266;7.920;2023-01-25T01:48:15;35.60;;;26.83;;
29662;SDS011;16578;53.266;7.920;2023-01-25T01:50:44;34.90;;;25.02;;
29662;SDS011;16578;53.266;7.920;2023-01-25T01:53:11;36.42;;;24.70;;
29662;SDS011;16578;53.266;7.920;2023-01-25T01:55:36;36.33;;;25.70;;
29662;SDS011;16578;53.266;7.920;2023-01-25T01:58:02;36.00;;;24.98;;
29662;SDS011;16578;53.266;7.920;2023-01-25T02:00:30;38.92;;;27.27;;
29662;SDS011;16578;53.266;7.920;2023-01-25T02:02:59;40.40;;;27.98;;
29662;SDS011;16578;53.266;7.920;2023-01-25T02:05:34;43.72;;;28.70;;
29662;SDS011;16578;53.266;7.920;2023-01-25T02:08:15;39.42;;;26.83;;
29662;SDS011;16578;53.266;7.920;2023-01-25T02:10:41;37.53;;;26.35;;
29662;SDS011;16578;53.266;7.920;2023-01-25T02:13:08;41.75;;;27.90;;
29662;SDS011;16578;53.266;7.920;2023-01-25T02:15:38;43.90;;;28.25;;
29662;SDS011;16578;53.266;7.920;2023-01-25T02:20:42;40.28;;;28.30;;
29662;SDS011;16578;53.266;7.920;2023-01-25T02:23:31;42.53;;;30.30;;
29662;SDS011;16578;53.266;7.920;2023-01-25T02:26:04;43.15;;;30.05;;
29662;SDS011;16578;53.266;7.920;2023-01-25T02:28:35;47.40;;;31.73;;
29662;SDS011;16578;53.266;7.920;2023-01-25T02:31:23;43.38;;;30.15;;
29662;SDS011;16578;53.266;7.920;2023-01-25T02:33:49;43.63;;;29.98;;
29662;SDS011;16578;53.266;7.920;2023-01-25T02:39:13;42.35;;;28.45;;
29662;SDS011;16578;53.266;7.920;2023-01-25T02:41:40;40.95;;;27.45;;
29662;SDS011;16578;53.266;7.920;2023-01-25T02:44:20;38.85;;;25.75;;
29662;SDS011;16578;53.266;7.920;2023-01-25T02:46:52;37.72;;;25.80;;
29662;SDS011;16578;53.266;7.920;2023-01-25T02:49:18;37.38;;;26.38;;
29662;SDS011;16578;53.266;7.920;2023-01-25T02:52:03;38.30;;;27.38;;
29662;SDS011;16578;53.266;7.920;2023-01-25T02:54:29;39.30;;;27.52;;
29662;SDS011;16578;53.266;7.920;2023-01-25T02:56:55;37.15;;;25.27;;
29662;SDS011;16578;53.266;7.920;2023-01-25T02:59:21;38.10;;;26.35;;
29662;SDS011;16578;53.266;7.920;2023-01-25T03:01:47;35.60;;;24.50;;
29662;SDS011;16578;53.266;7.920;2023-01-25T03:04:13;40.53;;;26.75;;
29662;SDS011;16578;53.266;7.920;2023-01-25T03:06:38;35.45;;;24.42;;
29662;SDS011;16578;53.266;7.920;2023-01-25T03:09:05;35.78;;;24.20;;
29662;SDS011;16578;53.266;7.920;2023-01-25T03:13:59;32.33;;;24.17;;
29662;SDS011;16578;53.266;7.920;2023-01-25T03:16:25;37.63;;;26.23;;
29662;SDS011;16578;53.266;7.920;2023-01-25T03:18:52;36.78;;;26.58;;
29662;SDS011;16578;53.266;7.920;2023-01-25T03:21:19;40.58;;;27.63;;
29662;SDS011;16578;53.266;7.920;2023-01-25T03:23:46;38.65;;;27.65;;
29662;SDS011;16578;53.266;7.920;2023-01-25T03:26:16;38.33;;;26.83;;
29662;SDS011;16578;53.266;7.920;2023-01-25T03:28:43;37.03;;;26.17;;
29662;SDS011;16578;53.266;7.920;2023-01-25T03:31:11;34.50;;;26.35;;
29662;SDS011;16578;53.266;7.920;2023-01-25T03:33:39;37.55;;;25.70;;
29662;SDS011;16578;53.266;7.920;2023-01-25T03:36:05;35.88;;;26.50;;
29662;SDS011;16578;53.266;7.920;2023-01-25T03:38:31;35.92;;;24.52;;
29662;SDS011;16578;53.266;7.920;2023-01-25T03:40:57;36.20;;;25.30;;
29662;SDS011;16578;53.266;7.920;2023-01-25T03:43:23;38.35;;;27.25;;
29662;SDS011;16578;53.266;7.920;2023-01-25T03:45:56;36.58;;;24.98;;
29662;SDS011;16578;53.266;7.920;2023-01-25T03:48:23;38.88;;;26.30;;
29662;SDS011;16578;53.266;7.920;2023-01-25T03:50:51;36.63;;;25.33;;
29662;SDS011;16578;53.266;7.920;2023-01-25T03:55:53;35.95;;;25.90;;
29662;SDS011;16578;53.266;7.920;2023-01-25T03:58:20;37.25;;;26.90;;
29662;SDS011;16578;53.266;7.920;2023-01-25T04:00:46;38.53;;;26.88;;
29662;SDS011;16578;53.266;7.920;2023-01-25T04:03:11;40.15;;;29.05;;
29662;SDS011;16578;53.266;7.920;2023-01-25T04:05:37;37.35;;;26.95;;
29662;SDS011;16578;53.266;7.920;2023-01-25T04:08:02;37.42;;;25.33;;
29662;SDS011;16578;53.266;7.920;2023-01-25T04:10:28;38.30;;;24.92;;
29662;SDS011;16578;53.266;7.920;2023-01-25T04:12:53;38.50;;;27.33;;
29662;SDS011;16578;53.266;7.920;2023-01-25T04:15:19;37.00;;;26.17;;
29662;SDS011;16578;53.266;7.920;2023-01-25T04:17:44;35.60;;;25.45;;
29662;SDS011;16578;53.266;7.920;2023-01-25T04:20:10;37.35;;;25.70;;
29662;SDS011;16578;53.266;7.920;2023-01-25T04:22:36;37.45;;;25.75;;
29662;SDS011;16578;53.266;7.920;2023-01-25T04:25:01;40.00;;;28.33;;
29662;SDS011;16578;53.266;7.920;2023-01-25T04:27:27;37.22;;;27.42;;
29662;SDS011;16578;53.266;7.920;2023-01-25T04:29:52;39.40;;;26.80;;
29662;SDS011;16578;53.266;7.920;2023-01-25T04:32:18;41.67;;;26.73;;
29662;SDS011;16578;53.266;7.920;2023-01-25T04:34:43;38.33;;;25.98;;
29662;SDS011;16578;53.266;7.920;2023-01-25T04:37:09;38.83;;;26.05;;
29662;SDS011;16578;53.266;7.920;2023-01-25T04:39:34;37.10;;;27.10;;
29662;SDS011;16578;53.266;7.920;2023-01-25T04:42:00;42.25;;;27.58;;
29662;SDS011;16578;53.266;7.920;2023-01-25T04:44:25;40.22;;;27.25;;
29662;SDS011;16578;53.266;7.920;2023-01-25T04:46:51;38.35;;;26.33;;
29662;SDS011;16578;53.266;7.920;2023-01-25T04:49:16;41.40;;;27.10;;
29662;SDS011;16578;53.266;7.920;2023-01-25T04:51:42;37.90;;;25.88;;
29662;SDS011;16578;53.266;7.920;2023-01-25T04:54:07;39.10;;;26.42;;
29662;SDS011;16578;53.266;7.920;2023-01-25T04:56:33;37.38;;;26.30;;
29662;SDS011;16578;53.266;7.920;2023-01-25T04:58:59;39.80;;;26.88;;
29662;SDS011;16578;53.266;7.920;2023-01-25T05:01:25;40.30;;;26.42;;
29662;SDS011;16578;53.266;7.920;2023-01-25T05:03:50;38.85;;;25.45;;
29662;SDS011;16578;53.266;7.920;2023-01-25T05:06:16;39.20;;;24.92;;
29662;SDS011;16578;53.266;7.920;2023-01-25T05:08:41;42.05;;;26.80;;
29662;SDS011;16578;53.266;7.920;2023-01-25T05:11:07;41.38;;;27.23;;
29662;SDS011;16578;53.266;7.920;2023-01-25T05:13:32;41.17;;;26.85;;
29662;SDS011;16578;53.266;7.920;2023-01-25T05:15:58;43.78;;;27.70;;
29662;SDS011;16578;53.266;7.920;2023-01-25T05:18:23;42.50;;;26.58;;
29662;SDS011;16578;53.266;7.920;2023-01-25T05:20:53;44.65;;;26.45;;
29662;SDS011;16578;53.266;7.920;2023-01-25T05:23:19;39.03;;;25.92;;
29662;SDS011;16578;53.266;7.920;2023-01-25T05:25:45;42.92;;;27.85;;
29662;SDS011;16578;53.266;7.920;2023-01-25T05:28:29;42.17;;;27.50;;
29662;SDS011;16578;53.266;7.920;2023-01-25T05:30:55;47.08;;;31.08;;
29662;SDS011;16578;53.266;7.920;2023-01-25T05:33:20;43.15;;;28.02;;
29662;SDS011;16578;53.266;7.920;2023-01-25T05:35:46;42.10;;;27.13;;
29662;SDS011;16578;53.266;7.920;2023-01-25T05:38:11;41.20;;;26.38;;
29662;SDS011;16578;53.266;7.920;2023-01-25T05:40:37;44.72;;;28.60;;
29662;SDS011;16578;53.266;7.920;2023-01-25T05:43:02;48.67;;;30.25;;
29662;SDS011;16578;53.266;7.920;2023-01-25T05:45:28;45.00;;;28.70;;
29662;SDS011;16578;53.266;7.920;2023-01-25T05:47:56;44.80;;;27.15;;
29662;SDS011;16578;53.266;7.920;2023-01-25T05:50:23;44.25;;;28.67;;
29662;SDS011;16578;53.266;7.920;2023-01-25T05:52:49;46.67;;;29.75;;
29662;SDS011;16578;53.266;7.920;2023-01-25T05:55:15;48.17;;;29.92;;
29662;SDS011;16578;53.266;7.920;2023-01-25T05:57:41;46.90;;;29.40;;
29662;SDS011;16578;53.266;7.920;2023-01-25T06:00:07;51.17;;;33.17;;
29662;SDS011;16578;53.266;7.920;2023-01-25T06:02:33;49.22;;;31.27;;
29662;SDS011;16578;53.266;7.920;2023-01-25T06:04:59;51.00;;;31.38;;
29662;SDS011;16578;53.266;7.920;2023-01-25T06:07:24;46.35;;;30.15;;
29662;SDS011;16578;53.266;7.920;2023-01-25T06:09:50;49.75;;;31.15;;
29662;SDS011;16578;53.266;7.920;2023-01-25T06:12:18;51.85;;;33.70;;
29662;SDS011;16578;53.266;7.920;2023-01-25T06:14:45;51.58;;;32.53;;
29662;SDS011;16578;53.266;7.920;2023-01-25T06:17:11;51.45;;;34.92;;
29662;SDS011;16578;53.266;7.920;2023-01-25T06:19:37;54.95;;;33.92;;
29662;SDS011;16578;53.266;7.920;2023-01-25T06:22:03;50.33;;;34.33;;
29662;SDS011;16578;53.266;7.920;2023-01-25T06:24:29;52.88;;;34.67;;
29662;SDS011;16578;53.266;7.920;2023-01-25T06:26:54;55.15;;;36.17;;
29662;SDS011;16578;53.266;7.920;2023-01-25T06:29:20;55.35;;;33.78;;
29662;SDS011;16578;53.266;7.920;2023-01-25T06:31:45;52.20;;;33.88;;
29662;SDS011;16578;53.266;7.920;2023-01-25T06:34:11;53.25;;;33.22;;
29662;SDS011;16578;53.266;7.920;2023-01-25T06:36:36;51.75;;;32.40;;
29662;SDS011;16578;53.266;7.920;2023-01-25T06:39:02;50.50;;;31.83;;
29662;SDS011;16578;53.266;7.920;2023-01-25T06:41:28;49.28;;;31.73;;
29662;SDS011;16578;53.266;7.920;2023-01-25T06:43:53;54.58;;;33.50;;
29662;SDS011;16578;53.266;7.920;2023-01-25T06:46:20;51.58;;;32.53;;
29662;SDS011;16578;53.266;7.920;2023-01-25T06:48:45;49.35;;;34.03;;
29662;SDS011;16578;53.266;7.920;2023-01-25T06:51:12;50.08;;;31.60;;
29662;SDS011;16578;53.266;7.920;2023-01-25T06:53:39;47.65;;;30.38;;
29662;SDS011;16578;53.266;7.920;2023-01-25T06:56:10;48.28;;;29.88;;
29662;SDS011;16578;53.266;7.920;2023-01-25T06:58:38;43.78;;;29.00;;
29662;SDS011;16578;53.266;7.920;2023-01-25T07:01:05;41.30;;;26.20;;
29662;SDS011;16578;53.266;7.920;2023-01-25T07:03:32;43.60;;;27.20;;
29662;SDS011;16578;53.266;7.920;2023-01-25T07:05:58;39.20;;;24.60;;
29662;SDS011;16578;53.266;7.920;2023-01-25T07:08:29;38.42;;;24.40;;
29662;SDS011;16578;53.266;7.920;2023-01-25T07:10:56;41.33;;;26.77;;
29662;SDS011;16578;53.266;7.920;2023-01-25T07:13:24;41.63;;;25.98;;
29662;SDS011;16578;53.266;7.920;2023-01-25T07:15:54;43.28;;;26.25;;
29662;SDS011;16578;53.266;7.920;2023-01-25T07:18:21;44.75;;;26.95;;
29662;SDS011;16578;53.266;7.920;2023-01-25T07:20:47;43.65;;;28.00;;
29662;SDS011;16578;53.266;7.920;2023-01-25T07:23:14;42.00;;;27.13;;
29662;SDS011;16578;53.266;7.920;2023-01-25T07:25:44;44.40;;;27.70;;
29662;SDS011;16578;53.266;7.920;2023-01-25T07:28:13;43.47;;;26.40;;
29662;SDS011;16578;53.266;7.920;2023-01-25T07:30:39;41.10;;;25.30;;
29662;SDS011;16578;53.266;7.920;2023-01-25T07:33:05;37.85;;;25.70;;
29662;SDS011;16578;53.266;7.920;2023-01-25T07:35:31;41.65;;;27.50;;
29662;SDS011;16578;53.266;7.920;2023-01-25T07:37:57;40.38;;;26.77;;
29662;SDS011;16578;53.266;7.920;2023-01-25T07:40:23;43.60;;;28.25;;
29662;SDS011;16578;53.266;7.920;2023-01-25T07:42:49;40.78;;;26.90;;
29662;SDS011;16578;53.266;7.920;2023-01-25T07:45:15;39.13;;;24.42;;
29662;SDS011;16578;53.266;7.920;2023-01-25T07:47:41;38.67;;;24.95;;
29662;SDS011;16578;53.266;7.920;2023-01-25T07:50:07;37.20;;;23.90;;
29662;SDS011;16578;53.266;7.920;2023-01-25T07:52:33;36.33;;;24.83;;
29662;SDS011;16578;53.266;7.920;2023-01-25T07:54:59;39.75;;;25.67;;
29662;SDS011;16578;53.266;7.920;2023-01-25T07:57:24;37.83;;;24.63;;
29662;SDS011;16578;53.266;7.920;2023-01-25T07:59:50;37.85;;;23.63;;
29662;SDS011;16578;53.266;7.920;2023-01-25T08:02:15;37.78;;;24.77;;
29662;SDS011;16578;53.266;7.920;2023-01-25T08:04:41;37.65;;;23.80;;
29662;SDS011;16578;53.266;7.920;2023-01-25T08:07:07;36.00;;;22.02;;
29662;SDS011;16578;53.266;7.920;2023-01-25T08:09:32;34.97;;;21.95;;
29662;SDS011;16578;53.266;7.920;2023-01-25T08:11:58;36.10;;;22.33;;
29662;SDS011;16578;53.266;7.920;2023-01-25T08:14:25;39.58;;;25.85;;
29662;SDS011;16578;53.266;7.920;2023-01-25T08:16:50;40.80;;;27.00;;
29662;SDS011;16578;53.266;7.920;2023-01-25T08:19:16;41.75;;;26.80;;
29662;SDS011;16578;53.266;7.920;2023-01-25T08:21:44;39.78;;;25.45;;
29662;SDS011;16578;53.266;7.920;2023-01-25T08:24:09;40.50;;;25.63;;
29662;SDS011;16578;53.266;7.920;2023-01-25T08:26:35;35.92;;;22.92;;
29662;SDS011;16578;53.266;7.920;2023-01-25T08:29:02;36.25;;;23.50;;
29662;SDS011;16578;53.266;7.920;2023-01-25T08:31:29;33.58;;;21.75;;
29662;SDS011;16578;53.266;7.920;2023-01-25T08:33:57;38.95;;;24.83;;
29662;SDS011;16578;53.266;7.920;2023-01-25T08:36:22;38.55;;;25.17;;
29662;SDS011;16578;53.266;7.920;2023-01-25T08:38:51;37.97;;;24.23;;
29662;SDS011;16578;53.266;7.920;2023-01-25T08:41:18;39.55;;;25.65;;
29662;SDS011;16578;53.266;7.920;2023-01-25T08:43:44;40.53;;;25.85;;
29662;SDS011;16578;53.266;7.920;2023-01-25T08:46:10;39.00;;;24.65;;
29662;SDS011;16578;53.266;7.920;2023-01-25T08:48:37;37.30;;;25.15;;
29662;SDS011;16578;53.266;7.920;2023-01-25T08:51:03;42.35;;;26.08;;
29662;SDS011;16578;53.266;7.920;2023-01-25T08:53:30;38.78;;;26.02;;
29662;SDS011;16578;53.266;7.920;2023-01-25T08:55:56;38.80;;;23.98;;
29662;SDS011;16578;53.266;7.920;2023-01-25T08:58:30;36.00;;;23.58;;
29662;SDS011;16578;53.266;7.920;2023-01-25T09:00:59;36.58;;;23.55;;
29662;SDS011;16578;53.266;7.920;2023-01-25T09:03:30;35.03;;;22.23;;
29662;SDS011;16578;53.266;7.920;2023-01-25T09:05:56;33.92;;;22.83;;
29662;SDS011;16578;53.266;7.920;2023-01-25T09:08:21;34.63;;;21.20;;
29662;SDS011;16578;53.266;7.920;2023-01-25T09:10:47;36.92;;;23.10;;
29662;SDS011;16578;53.266;7.920;2023-01-25T09:13:13;36.78;;;23.80;;
29662;SDS011;16578;53.266;7.920;2023-01-25T09:15:38;30.23;;;20.05;;
29662;SDS011;16578;53.266;7.920;2023-01-25T09:18:04;36.22;;;22.98;;
29662;SDS011;16578;53.266;7.920;2023-01-25T09:20:29;35.92;;;22.17;;
29662;SDS011;16578;53.266;7.920;2023-01-25T09:22:55;37.83;;;24.85;;
29662;SDS011;16578;53.266;7.920;2023-01-25T09:25:21;38.10;;;24.13;;
29662;SDS011;16578;53.266;7.920;2023-01-25T09:27:49;36.42;;;24.35;;
29662;SDS011;16578;53.266;7.920;2023-01-25T09:30:16;37.67;;;25.73;;
29662;SDS011;16578;53.266;7.920;2023-01-25T09:32:42;36.75;;;23.65;;
29662;SDS011;16578;53.266;7.920;2023-01-25T09:35:08;37.25;;;24.27;;
29662;SDS011;16578;53.266;7.920;2023-01-25T09:37:33;35.90;;;23.02;;
29662;SDS011;16578;53.266;7.920;2023-01-25T09:39:59;33.90;;;23.45;;
29662;SDS011;16578;53.266;7.920;2023-01-25T09:47:41;35.45;;;21.58;;
29662;SDS011;16578;53.266;7.920;2023-01-25T09:55:48;37.50;;;23.95;;
29662;SDS011;16578;53.266;7.920;2023-01-25T09:58:19;34.97;;;22.65;;
29662;SDS011;16578;53.266;7.920;2023-01-25T10:00:49;34.80;;;23.55;;
29662;SDS011;16578;53.266;7.920;2023-01-25T10:05:50;35.97;;;23.27;;
29662;SDS011;16578;53.266;7.920;2023-01-25T10:08:25;34.00;;;22.80;;
29662;SDS011;16578;53.266;7.920;2023-01-25T10:11:29;36.50;;;24.90;;
29662;SDS011;16578;53.266;7.920;2023-01-25T10:13:49;35.70;;;22.75;;
29662;SDS011;16578;53.266;7.920;2023-01-25T10:16:25;39.25;;;23.58;;
29662;SDS011;16578;53.266;7.920;2023-01-25T10:18:58;27.73;;;17.88;;
29662;SDS011;16578;53.266;7.920;2023-01-25T10:21:34;35.92;;;22.40;;
29662;SDS011;16578;53.266;7.920;2023-01-25T10:27:01;38.75;;;23.42;;
29662;SDS011;16578;53.266;7.920;2023-01-25T10:29:35;38.80;;;23.15;;
29662;SDS011;16578;53.266;7.920;2023-01-25T10:34:42;38.40;;;25.05;;
29662;SDS011;16578;53.266;7.920;2023-01-25T10:37:21;40.35;;;25.42;;
29662;SDS011;16578;53.266;7.920;2023-01-25T10:42:21;42.80;;;26.58;;
29662;SDS011;16578;53.266;7.920;2023-01-25T10:44:50;43.28;;;27.17;;
29662;SDS011;16578;53.266;7.920;2023-01-25T10:47:18;46.20;;;29.38;;
29662;SDS011;16578;53.266;7.920;2023-01-25T10:49:54;47.30;;;28.17;;
29662;SDS011;16578;53.266;7.920;2023-01-25T10:52:22;49.05;;;28.23;;
29662;SDS011;16578;53.266;7.920;2023-01-25T10:57:47;45.33;;;29.02;;
29662;SDS011;16578;53.266;7.920;2023-01-25T11:00:36;43.55;;;26.92;;
29662;SDS011;16578;53.266;7.920;2023-01-25T11:03:05;47.63;;;27.65;;
29662;SDS011;16578;53.266;7.920;2023-01-25T11:05:44;46.60;;;28.58;;
29662;SDS011;16578;53.266;7.920;2023-01-25T11:08:20;52.30;;;33.03;;
29662;SDS011;16578;53.266;7.920;2023-01-25T11:10:46;55.10;;;35.00;;
29662;SDS011;16578;53.266;7.920;2023-01-25T11:18:27;53.67;;;32.90;;
29662;SDS011;16578;53.266;7.920;2023-01-25T11:21:09;57.42;;;33.03;;
29662;SDS011;16578;53.266;7.920;2023-01-25T11:23:39;58.17;;;34.67;;
29662;SDS011;16578;53.266;7.920;2023-01-25T11:26:13;59.90;;;34.42;;
29662;SDS011;16578;53.266;7.920;2023-01-25T11:28:39;63.47;;;36.63;;
29662;SDS011;16578;53.266;7.920;2023-01-25T11:31:08;59.97;;;37.50;;
29662;SDS011;16578;53.266;7.920;2023-01-25T11:33:36;57.67;;;34.90;;
29662;SDS011;16578;53.266;7.920;2023-01-25T11:39:33;63.28;;;36.15;;
29662;SDS011;16578;53.266;7.920;2023-01-25T11:57:56;50.83;;;32.08;;
29662;SDS011;16578;53.266;7.920;2023-01-25T12:05:35;44.05;;;25.70;;
29662;SDS011;16578;53.266;7.920;2023-01-25T12:08:26;47.58;;;28.23;;
29662;SDS011;16578;53.266;7.920;2023-01-25T12:14:05;50.30;;;30.13;;
29662;SDS011;16578;53.266;7.920;2023-01-25T12:17:02;50.13;;;31.40;;
29662;SDS011;16578;53.266;7.920;2023-01-25T12:19:49;47.45;;;28.05;;
29662;SDS011;16578;53.266;7.920;2023-01-25T12:22:35;44.55;;;27.40;;
29662;SDS011;16578;53.266;7.920;2023-01-25T12:30:58;43.55;;;26.42;;
29662;SDS011;16578;53.266;7.920;2023-01-25T12:36:19;44.00;;;25.42;;
29662;SDS011;16578;53.266;7.920;2023-01-25T12:38:58;40.45;;;24.30;;
29662;SDS011;16578;53.266;7.920;2023-01-25T12:41:29;45.65;;;26.30;;
29662;SDS011;16578;53.266;7.920;2023-01-25T12:44:21;40.40;;;25.23;;
29662;SDS011;16578;53.266;7.920;2023-01-25T12:46:56;42.85;;;26.05;;
29662;SDS011;16578;53.266;7.920;2023-01-25T12:49:54;37.75;;;23.65;;
29662;SDS011;16578;53.266;7.920;2023-01-25T12:52:32;45.38;;;27.20;;
29662;SDS011;16578;53.266;7.920;2023-01-25T12:55:00;41.50;;;27.10;;
29662;SDS011;16578;53.266;7.920;2023-01-25T13:03:03;45.63;;;29.60;;
29662;SDS011;16578;53.266;7.920;2023-01-25T13:05:47;46.58;;;28.25;;
29662;SDS011;16578;53.266;7.920;2023-01-25T13:11:29;40.83;;;25.08;;
29662;SDS011;16578;53.266;7.920;2023-01-25T13:16:48;40.78;;;25.80;;
29662;SDS011;16578;53.266;7.920;2023-01-25T13:19:19;42.58;;;27.45;;
29662;SDS011;16578;53.266;7.920;2023-01-25T13:21:47;41.55;;;26.63;;
29662;SDS011;16578;53.266;7.920;2023-01-25T13:25:04;43.03;;;27.48;;
29662;SDS011;16578;53.266;7.920;2023-01-25T13:27:26;45.78;;;27.27;;
29662;SDS011;16578;53.266;7.920;2023-01-25T13:29:53;38.70;;;23.70;;
29662;SDS011;16578;53.266;7.920;2023-01-25T13:37:20;37.58;;;24.27;;
29662;SDS011;16578;53.266;7.920;2023-01-25T13:39:51;36.95;;;23.10;;
29662;SDS011;16578;53.266;7.920;2023-01-25T13:42:26;40.42;;;25.75;;
29662;SDS011;16578;53.266;7.920;2023-01-25T13:44:54;39.88;;;25.38;;
29662;SDS011;16578;53.266;7.920;2023-01-25T13:47:29;40.15;;;24.38;;
29662;SDS011;16578;53.266;7.920;2023-01-25T13:50:01;36.30;;;23.08;;
29662;SDS011;16578;53.266;7.920;2023-01-25T13:52:59;36.88;;;23.02;;
29662;SDS011;16578;53.266;7.920;2023-01-25T13:55:25;39.42;;;25.42;;
29662;SDS011;16578;53.266;7.920;2023-01-25T13:57:52;39.83;;;24.98;;
29662;SDS011;16578;53.266;7.920;2023-01-25T14:00:31;34.80;;;22.65;;
29662;SDS011;16578;53.266;7.920;2023-01-25T14:02:57;37.58;;;23.65;;
29662;SDS011;16578;53.266;7.920;2023-01-25T14:05:23;35.92;;;22.60;;
29662;SDS011;16578;53.266;7.920;2023-01-25T14:07:50;35.40;;;23.02;;
29662;SDS011;16578;53.266;7.920;2023-01-25T14:10:18;36.03;;;23.30;;
29662;SDS011;16578;53.266;7.920;2023-01-25T14:12:48;40.08;;;25.05;;
29662;SDS011;16578;53.266;7.920;2023-01-25T14:20:43;37.03;;;23.20;;
29662;SDS011;16578;53.266;7.920;2023-01-25T14:23:20;36.13;;;22.10;;
29662;SDS011;16578;53.266;7.920;2023-01-25T14:25:46;36.60;;;22.42;;
29662;SDS011;16578;53.266;7.920;2023-01-25T14:28:11;39.30;;;23.33;;
29662;SDS011;16578;53.266;7.920;2023-01-25T14:30:39;38.35;;;24.05;;
29662;SDS011;16578;53.266;7.920;2023-01-25T14:33:18;41.53;;;24.17;;
29662;SDS011;16578;53.266;7.920;2023-01-25T14:35:51;38.28;;;22.63;;
29662;SDS011;16578;53.266;7.920;2023-01-25T14:38:22;34.97;;;22.45;;
29662;SDS011;16578;53.266;7.920;2023-01-25T14:40:52;36.33;;;23.60;;
29662;SDS011;16578;53.266;7.920;2023-01-25T14:43:25;41.83;;;26.05;;
29662;SDS011;16578;53.266;7.920;2023-01-25T14:45:51;38.75;;;24.75;;
29662;SDS011;16578;53.266;7.920;2023-01-25T14:48:37;41.47;;;24.58;;
29662;SDS011;16578;53.266;7.920;2023-01-25T14:53:46;40.97;;;24.05;;
29662;SDS011;16578;53.266;7.920;2023-01-25T14:56:16;39.72;;;23.45;;
29662;SDS011;16578;53.266;7.920;2023-01-25T14:58:47;39.50;;;22.98;;
29662;SDS011;16578;53.266;7.920;2023-01-25T15:01:13;39.20;;;22.85;;
29662;SDS011;16578;53.266;7.920;2023-01-25T15:03:50;39.87;;;22.90;;
29662;SDS011;16578;53.266;7.920;2023-01-25T15:06:16;36.38;;;21.55;;
29662;SDS011;16578;53.266;7.920;2023-01-25T15:08:41;37.05;;;22.02;;
29662;SDS011;16578;53.266;7.920;2023-01-25T15:14:02;41.25;;;23.35;;
29662;SDS011;16578;53.266;7.920;2023-01-25T15:16:39;43.38;;;24.08;;
29662;SDS011;16578;53.266;7.920;2023-01-25T15:19:19;38.08;;;22.45;;
29662;SDS011;16578;53.266;7.920;2023-01-25T15:21:45;40.63;;;22.85;;
29662;SDS011;16578;53.266;7.920;2023-01-25T15:24:12;43.83;;;23.92;;
29662;SDS011;16578;53.266;7.920;2023-01-25T15:26:38;48.08;;;26.17;;
29662;SDS011;16578;53.266;7.920;2023-01-25T15:29:11;47.15;;;28.15;;
29662;SDS011;16578;53.266;7.920;2023-01-25T15:31:41;49.55;;;29.35;;
29662;SDS011;16578;53.266;7.920;2023-01-25T15:34:13;44.35;;;27.55;;
29662;SDS011;16578;53.266;7.920;2023-01-25T15:36:41;42.17;;;25.40;;
29662;SDS011;16578;53.266;7.920;2023-01-25T15:39:14;49.10;;;27.45;;
29662;SDS011;16578;53.266;7.920;2023-01-25T15:41:41;48.03;;;26.67;;
29662;SDS011;16578;53.266;7.920;2023-01-25T15:44:07;51.67;;;27.58;;
29662;SDS011;16578;53.266;7.920;2023-01-25T15:46:34;49.08;;;27.80;;
29662;SDS011;16578;53.266;7.920;2023-01-25T15:49:03;46.92;;;26.58;;
29662;SDS011;16578;53.266;7.920;2023-01-25T15:51:30;42.35;;;25.10;;
29662;SDS011;16578;53.266;7.920;2023-01-25T15:53:56;41.92;;;24.33;;
29662;SDS011;16578;53.266;7.920;2023-01-25T15:56:23;46.45;;;26.67;;
29662;SDS011;16578;53.266;7.920;2023-01-25T15:58:53;43.05;;;25.10;;
29662;SDS011;16578;53.266;7.920;2023-01-25T16:01:22;42.90;;;23.90;;
29662;SDS011;16578;53.266;7.920;2023-01-25T16:03:50;42.85;;;24.65;;
29662;SDS011;16578;53.266;7.920;2023-01-25T16:09:22;42.22;;;24.98;;
29662;SDS011;16578;53.266;7.920;2023-01-25T16:11:54;41.78;;;25.55;;
29662;SDS011;16578;53.266;7.920;2023-01-25T16:14:24;45.20;;;25.60;;
29662;SDS011;16578;53.266;7.920;2023-01-25T16:16:56;42.08;;;24.70;;
29662;SDS011;16578;53.266;7.920;2023-01-25T16:19:24;44.90;;;25.20;;
29662;SDS011;16578;53.266;7.920;2023-01-25T16:21:50;44.72;;;25.38;;
29662;SDS011;16578;53.266;7.920;2023-01-25T16:24:15;44.53;;;24.73;;
29662;SDS011;16578;53.266;7.920;2023-01-25T16:27:00;43.53;;;24.02;;
29662;SDS011;16578;53.266;7.920;2023-01-25T16:29:25;39.97;;;23.52;;